createdAt,value
2023-03-21T00:00:01.123Z,10.1
2023-03-21T00:01:01.147Z,10.1
2023-03-21T00:02:01.175Z,10.1
2023-03-21T00:03:01.258Z,10.1
2023-03-21T00:04:01.530Z,10.1
2023-03-21T00:05:13.455Z,10.1
2023-03-21T00:06:01.340Z,10.1
2023-03-21T00:07:04.540Z,10.1
2023-03-21T00:08:02.792Z,10.1
2023-03-21T00:09:01.372Z,10.1
2023-03-21T00:10:12.485Z,10.1
2023-03-21T00:11:02.153Z,10.1
2023-03-21T00:12:01.401Z,10.1
2023-03-21T00:13:01.452Z,10.1
2023-03-21T00:14:01.581Z,10.1
2023-03-21T00:15:01.210Z,10.1
2023-03-21T00:16:08.213Z,10.1
2023-03-21T00:17:01.137Z,10.1
2023-03-21T00:18:01.141Z,10.1
2023-03-21T00:19:01.194Z,10.1
2023-03-21T00:20:01.643Z,10.1
2023-03-21T00:21:29.313Z,10.1
2023-03-21T00:23:01.749Z,10.1
2023-03-21T00:24:01.374Z,10.1
2023-03-21T00:25:01.216Z,10.1
2023-03-21T00:26:01.522Z,10.1
2023-03-21T00:27:26.334Z,10.1
2023-03-21T00:28:08.413Z,10.1
2023-03-21T00:29:01.152Z,10.1
2023-03-21T00:30:01.119Z,10.1
2023-03-21T00:31:01.053Z,10.1
2023-03-21T00:32:08.090Z,10.1
2023-03-21T00:33:05.900Z,10
2023-03-21T00:34:01.531Z,10.1
2023-03-21T00:35:18.700Z,10
2023-03-21T00:36:05.140Z,10
2023-03-21T00:37:01.788Z,10
2023-03-21T00:38:02.985Z,10
2023-03-21T00:39:02.977Z,10
2023-03-21T00:40:01.361Z,10
2023-03-21T00:41:07.899Z,10
2023-03-21T00:42:01.149Z,10
2023-03-21T00:43:00.782Z,10
2023-03-21T00:44:00.802Z,10
2023-03-21T00:45:00.798Z,10
2023-03-21T00:46:02.024Z,10
2023-03-21T00:47:07.397Z,10
2023-03-21T00:48:01.422Z,10
2023-03-21T00:49:01.268Z,10
2023-03-21T00:50:01.935Z,10
2023-03-21T00:51:05.203Z,10
2023-03-21T00:52:14.611Z,9.9
2023-03-21T00:53:01.395Z,9.9
2023-03-21T00:54:01.404Z,9.9
2023-03-21T00:55:01.574Z,9.9
2023-03-21T00:56:06.956Z,9.9
2023-03-21T00:57:01.071Z,9.9
2023-03-21T00:58:02.442Z,9.9
2023-03-21T00:59:01.096Z,9.9
2023-03-21T01:00:01.437Z,9.8
2023-03-21T01:01:11.077Z,9.9
2023-03-21T01:02:01.566Z,9.8
2023-03-21T01:03:11.253Z,9.8
2023-03-21T01:04:01.811Z,9.8
2023-03-21T01:05:01.592Z,9.8
2023-03-21T01:06:12.743Z,9.8
2023-03-21T01:07:01.092Z,9.8
2023-03-21T01:08:02.947Z,9.8
2023-03-21T01:09:01.160Z,9.8
2023-03-21T01:10:01.337Z,9.8
2023-03-21T01:11:14.474Z,9.8
2023-03-21T01:12:01.091Z,9.8
2023-03-21T01:13:01.072Z,9.8
2023-03-21T01:14:18.700Z,9.8
2023-03-21T01:15:02.198Z,9.8
2023-03-21T01:16:02.096Z,9.8
2023-03-21T01:17:00.699Z,9.8
2023-03-21T01:18:00.385Z,9.8
2023-03-21T01:18:59.986Z,9.8
2023-03-21T01:19:59.590Z,9.8
2023-03-21T01:21:01.708Z,9.8
2023-03-21T01:22:02.024Z,9.8
2023-03-21T01:23:01.483Z,9.8
2023-03-21T01:24:01.312Z,9.8
2023-03-21T01:25:19.357Z,9.8
2023-03-21T01:26:01.155Z,9.7
2023-03-21T01:27:01.190Z,9.8
2023-03-21T01:28:01.059Z,9.8
2023-03-21T01:29:01.054Z,9.7
2023-03-21T01:30:01.096Z,9.7
2023-03-21T01:31:01.363Z,9.7
2023-03-21T01:32:01.145Z,9.7
2023-03-21T01:33:01.311Z,9.7
2023-03-21T01:34:01.234Z,9.7
2023-03-21T01:35:01.518Z,9.7
2023-03-21T01:36:12.316Z,9.7
2023-03-21T01:37:01.157Z,9.7
2023-03-21T01:38:01.293Z,9.7
2023-03-21T01:39:01.323Z,9.7
2023-03-21T01:40:01.335Z,9.7
2023-03-21T01:41:01.168Z,9.7
2023-03-21T01:42:01.171Z,9.7
2023-03-21T01:43:01.745Z,9.7
2023-03-21T01:44:01.063Z,9.7
2023-03-21T01:45:01.108Z,9.7
2023-03-21T01:46:01.358Z,9.7
2023-03-21T01:47:10.912Z,9.6
2023-03-21T01:48:01.078Z,9.6
2023-03-21T01:49:01.198Z,9.6
2023-03-21T01:50:01.525Z,9.7
2023-03-21T01:51:01.221Z,9.7
2023-03-21T01:52:11.451Z,9.6
2023-03-21T01:53:02.168Z,9.7
2023-03-21T01:54:01.253Z,9.7
2023-03-21T01:55:01.339Z,9.7
2023-03-21T01:56:02.052Z,9.7
2023-03-21T01:57:01.560Z,9.7
2023-03-21T01:58:08.490Z,9.7
2023-03-21T01:59:01.189Z,9.7
2023-03-21T02:00:01.921Z,9.7
2023-03-21T02:01:01.915Z,9.7
2023-03-21T02:02:01.103Z,9.6
2023-03-21T02:03:11.462Z,9.6
2023-03-21T02:04:01.138Z,9.6
2023-03-21T02:05:01.341Z,9.6
2023-03-21T02:06:01.482Z,9.6
2023-03-21T02:07:01.109Z,9.6
2023-03-21T02:08:01.134Z,9.6
2023-03-21T02:09:01.137Z,9.6
2023-03-21T02:10:01.155Z,9.6
2023-03-21T02:11:01.157Z,9.6
2023-03-21T02:12:01.159Z,9.6
2023-03-21T02:13:01.532Z,9.6
2023-03-21T02:14:06.542Z,9.6
2023-03-21T02:15:01.284Z,9.6
2023-03-21T02:16:01.067Z,9.6
2023-03-21T02:17:01.141Z,9.6
2023-03-21T02:18:01.967Z,9.6
2023-03-21T02:19:01.077Z,9.6
2023-03-21T02:20:01.118Z,9.6
2023-03-21T02:21:01.217Z,9.6
2023-03-21T02:22:02.810Z,9.6
2023-03-21T02:23:01.308Z,9.6
2023-03-21T02:24:02.046Z,9.6
2023-03-21T02:25:04.389Z,9.6
2023-03-21T02:26:01.126Z,9.6
2023-03-21T02:27:06.256Z,9.6
2023-03-21T02:28:01.130Z,9.6
2023-03-21T02:29:01.219Z,9.6
2023-03-21T02:30:01.168Z,9.6
2023-03-21T02:31:01.223Z,9.6
2023-03-21T02:32:20.326Z,9.5
2023-03-21T02:33:01.992Z,9.6
2023-03-21T02:33:59.783Z,9.6
2023-03-21T02:35:01.402Z,9.5
2023-03-21T02:36:11.886Z,9.6
2023-03-21T02:37:12.876Z,9.5
2023-03-21T02:38:01.220Z,9.5
2023-03-21T02:39:01.125Z,9.5
2023-03-21T02:40:01.201Z,9.5
2023-03-21T02:41:03.422Z,9.5
2023-03-21T02:42:16.232Z,9.5
2023-03-21T02:43:01.617Z,9.5
2023-03-21T02:44:01.531Z,9.5
2023-03-21T02:45:01.358Z,9.5
2023-03-21T02:46:01.191Z,9.5
2023-03-21T02:47:06.042Z,9.5
2023-03-21T02:48:01.173Z,9.5
2023-03-21T02:49:01.893Z,9.5
2023-03-21T02:50:01.063Z,9.5
2023-03-21T02:51:01.075Z,9.5
2023-03-21T02:52:12.172Z,9.5
2023-03-21T02:53:01.219Z,9.5
2023-03-21T02:54:24.948Z,9.5
2023-03-21T02:55:01.982Z,9.5
2023-03-21T02:56:00.713Z,9.5
2023-03-21T02:57:00.411Z,9.4
2023-03-21T02:58:11.748Z,9.4
2023-03-21T02:59:01.172Z,9.4
2023-03-21T03:00:10.629Z,9.4
2023-03-21T03:01:01.146Z,9.4
2023-03-21T03:02:01.169Z,9.4
2023-03-21T03:03:09.260Z,9.4
2023-03-21T03:04:01.129Z,9.4
2023-03-21T03:05:06.467Z,9.4
2023-03-21T03:06:00.663Z,9.4
2023-03-21T03:07:00.250Z,9.4
2023-03-21T03:07:59.868Z,9.4
2023-03-21T03:09:03.208Z,9.4
2023-03-21T03:10:01.817Z,9.4
2023-03-21T03:11:01.130Z,9.4
2023-03-21T03:12:01.139Z,9.4
2023-03-21T03:13:02.215Z,9.3
2023-03-21T03:14:15.523Z,9.3
2023-03-21T03:15:04.525Z,9.3
2023-03-21T03:16:01.272Z,9.3
2023-03-21T03:17:01.157Z,9.3
2023-03-21T03:18:00.663Z,9.3
2023-03-21T03:19:00.432Z,9.4
2023-03-21T03:20:07.190Z,9.3
2023-03-21T03:21:02.627Z,9.3
2023-03-21T03:22:01.085Z,9.3
2023-03-21T03:23:00.989Z,9.3
2023-03-21T03:24:01.092Z,9.3
2023-03-21T03:25:12.580Z,9.3
2023-03-21T03:26:02.124Z,9.3
2023-03-21T03:27:02.810Z,9.3
2023-03-21T03:28:01.133Z,9.3
2023-03-21T03:29:01.203Z,9.3
2023-03-21T03:30:01.172Z,9.3
2023-03-21T03:31:09.175Z,9.4
2023-03-21T03:32:02.745Z,9.4
2023-03-21T03:33:01.064Z,9.4
2023-03-21T03:34:01.575Z,9.4
2023-03-21T03:35:01.051Z,9.4
2023-03-21T03:36:06.605Z,9.4
2023-03-21T03:37:01.254Z,9.4
2023-03-21T03:38:02.030Z,9.3
2023-03-21T03:39:01.524Z,9.4
2023-03-21T03:40:01.111Z,9.4
2023-03-21T03:41:01.181Z,9.4
2023-03-21T03:42:12.492Z,9.3
2023-03-21T03:43:01.076Z,9.3
2023-03-21T03:44:01.689Z,9.3
2023-03-21T03:45:01.094Z,9.3
2023-03-21T03:46:01.138Z,9.3
2023-03-21T03:47:01.991Z,9.3
2023-03-21T03:48:01.112Z,9.3
2023-03-21T03:49:01.054Z,9.3
2023-03-21T03:50:01.153Z,9.3
2023-03-21T03:51:01.063Z,9.3
2023-03-21T03:52:01.167Z,9.3
2023-03-21T03:53:07.146Z,9.3
2023-03-21T03:54:00.664Z,9.3
2023-03-21T03:55:00.381Z,9.3
2023-03-21T03:56:00.081Z,9.4
2023-03-21T03:56:59.763Z,9.3
2023-03-21T03:58:03.205Z,9.4
2023-03-21T03:59:01.725Z,9.4
2023-03-21T04:00:02.099Z,9.4
2023-03-21T04:01:01.404Z,9.4
2023-03-21T04:02:02.089Z,9.4
2023-03-21T04:03:01.833Z,9.4
2023-03-21T04:04:12.612Z,9.3
2023-03-21T04:05:01.180Z,9.3
2023-03-21T04:06:01.186Z,9.3
2023-03-21T04:07:01.179Z,9.3
2023-03-21T04:08:04.745Z,9.3
2023-03-21T04:09:03.426Z,9.3
2023-03-21T04:10:01.496Z,9.3
2023-03-21T04:11:01.509Z,9.3
2023-03-21T04:12:01.092Z,9.3
2023-03-21T04:13:08.630Z,9.3
2023-03-21T04:14:01.926Z,9.3
2023-03-21T04:15:10.193Z,9.3
2023-03-21T04:16:01.543Z,9.3
2023-03-21T04:17:01.270Z,9.3
2023-03-21T04:18:12.833Z,9.3
2023-03-21T04:19:01.941Z,9.2
2023-03-21T04:20:11.370Z,9.2
2023-03-21T04:21:01.184Z,9.2
2023-03-21T04:22:01.165Z,9.2
2023-03-21T04:23:15.591Z,9.2
2023-03-21T04:24:01.258Z,9.1
2023-03-21T04:25:02.075Z,9.1
2023-03-21T04:26:01.099Z,9.1
2023-03-21T04:27:01.168Z,9.1
2023-03-21T04:28:01.113Z,9.1
2023-03-21T04:29:01.100Z,9.1
2023-03-21T04:30:01.123Z,9.1
2023-03-21T04:31:08.780Z,9.1
2023-03-21T04:32:01.628Z,9.1
2023-03-21T04:33:01.234Z,9.1
2023-03-21T04:34:01.133Z,9.1
2023-03-21T04:35:01.082Z,9.1
2023-03-21T04:36:01.276Z,9.1
2023-03-21T04:37:01.518Z,9.1
2023-03-21T04:38:00.548Z,9.2
2023-03-21T04:39:01.621Z,9.2
2023-03-21T04:40:01.769Z,9.2
2023-03-21T04:41:01.367Z,9.2
2023-03-21T04:42:02.091Z,9.2
2023-03-21T04:43:01.149Z,9.2
2023-03-21T04:44:01.046Z,9.2
2023-03-21T04:45:01.066Z,9.2
2023-03-21T04:46:01.118Z,9.2
2023-03-21T04:47:01.501Z,9.2
2023-03-21T04:48:01.540Z,9.2
2023-03-21T04:49:01.108Z,9.1
2023-03-21T04:50:01.152Z,9.1
2023-03-21T04:51:01.154Z,9.1
2023-03-21T04:52:01.067Z,9.1
2023-03-21T04:53:01.072Z,9.1
2023-03-21T04:54:01.182Z,9.1
2023-03-21T04:55:01.240Z,9.1
2023-03-21T04:56:01.469Z,9.1
2023-03-21T04:57:01.068Z,9.1
2023-03-21T04:58:00.778Z,9.1
2023-03-21T04:59:00.415Z,9.1
2023-03-21T05:00:00.054Z,9.1
2023-03-21T05:00:59.840Z,9.1
2023-03-21T05:02:01.556Z,9.1
2023-03-21T05:03:01.111Z,9.1
2023-03-21T05:04:01.580Z,9.1
2023-03-21T05:05:02.124Z,9.1
2023-03-21T05:06:00.745Z,9.1
2023-03-21T05:07:00.409Z,9.1
2023-03-21T05:08:00.116Z,9.1
2023-03-21T05:09:00.361Z,9.1
2023-03-21T05:10:02.232Z,9.1
2023-03-21T05:11:02.503Z,9.1
2023-03-21T05:12:01.902Z,9.1
2023-03-21T05:13:01.145Z,9.1
2023-03-21T05:14:01.891Z,9
2023-03-21T05:15:02.011Z,9
2023-03-21T05:16:00.592Z,9
2023-03-21T05:17:00.412Z,9
2023-03-21T05:18:00.185Z,9
2023-03-21T05:18:59.900Z,9
2023-03-21T05:19:59.689Z,8.9
2023-03-21T05:21:01.437Z,8.9
2023-03-21T05:22:01.347Z,8.9
2023-03-21T05:23:02.170Z,8.9
2023-03-21T05:24:00.990Z,8.9
2023-03-21T05:25:01.152Z,8.9
2023-03-21T05:26:01.228Z,8.9
2023-03-21T05:27:01.695Z,8.9
2023-03-21T05:28:01.354Z,8.9
2023-03-21T05:29:02.036Z,8.9
2023-03-21T05:30:01.096Z,8.9
2023-03-21T05:31:01.152Z,9
2023-03-21T05:32:01.094Z,9
2023-03-21T05:33:02.309Z,9
2023-03-21T05:34:01.708Z,8.9
2023-03-21T05:35:01.964Z,9
2023-03-21T05:36:01.533Z,9
2023-03-21T05:37:01.836Z,9
2023-03-21T05:38:00.945Z,9
2023-03-21T05:39:02.402Z,9
2023-03-21T05:40:01.155Z,8.9
2023-03-21T05:41:02.604Z,8.9
2023-03-21T05:42:01.159Z,8.8
2023-03-21T05:43:01.168Z,8.8
2023-03-21T05:44:05.676Z,8.8
2023-03-21T05:45:01.798Z,8.8
2023-03-21T05:46:01.512Z,8.8
2023-03-21T05:47:01.892Z,8.8
2023-03-21T05:48:01.227Z,8.8
2023-03-21T05:49:08.112Z,8.8
2023-03-21T05:50:01.192Z,8.8
2023-03-21T05:51:01.119Z,8.8
2023-03-21T05:52:01.150Z,8.8
2023-03-21T05:53:01.122Z,8.9
2023-03-21T05:54:11.435Z,8.9
2023-03-21T05:55:01.085Z,8.9
2023-03-21T05:56:01.153Z,8.9
2023-03-21T05:57:01.174Z,8.9
2023-03-21T05:58:00.720Z,9
2023-03-21T05:59:14.079Z,9
2023-03-21T06:00:01.898Z,9
2023-03-21T06:01:01.084Z,9
2023-03-21T06:02:01.073Z,9
2023-03-21T06:03:01.452Z,9
2023-03-21T06:04:16.920Z,9
2023-03-21T06:05:01.107Z,9
2023-03-21T06:06:01.219Z,9
2023-03-21T06:07:01.142Z,9
2023-03-21T06:08:01.243Z,9
2023-03-21T06:09:01.146Z,9
2023-03-21T06:10:01.366Z,9
2023-03-21T06:11:01.423Z,8.9
2023-03-21T06:12:02.574Z,8.9
2023-03-21T06:13:01.581Z,9
2023-03-21T06:14:01.913Z,9
2023-03-21T06:15:01.259Z,9
2023-03-21T06:16:01.111Z,8.9
2023-03-21T06:17:01.233Z,9
2023-03-21T06:18:00.654Z,9
2023-03-21T06:19:00.389Z,9
2023-03-21T06:20:00.109Z,8.9
2023-03-21T06:20:59.979Z,9
2023-03-21T06:21:59.716Z,8.9
2023-03-21T06:23:01.540Z,8.9
2023-03-21T06:24:01.248Z,9
2023-03-21T06:25:01.435Z,8.9
2023-03-21T06:26:01.139Z,9
2023-03-21T06:27:03.522Z,9
2023-03-21T06:28:01.291Z,9
2023-03-21T06:29:01.569Z,9
2023-03-21T06:30:01.210Z,9
2023-03-21T06:31:02.143Z,9
2023-03-21T06:32:01.071Z,9
2023-03-21T06:33:01.081Z,9
2023-03-21T06:34:01.074Z,9.1
2023-03-21T06:35:01.189Z,9.1
2023-03-21T06:36:01.218Z,9.1
2023-03-21T06:37:01.407Z,9.1
2023-03-21T06:38:00.686Z,9.1
2023-03-21T06:39:00.289Z,9.1
2023-03-21T06:39:59.871Z,9.1
2023-03-21T06:40:59.469Z,9.1
2023-03-21T06:42:01.138Z,9.1
2023-03-21T06:43:01.148Z,9.1
2023-03-21T06:44:01.152Z,9.1
2023-03-21T06:45:01.156Z,9.1
2023-03-21T06:46:01.596Z,9.1
2023-03-21T06:47:01.360Z,9.1
2023-03-21T06:48:01.183Z,9.1
2023-03-21T06:49:03.956Z,9.1
2023-03-21T06:50:01.157Z,9.1
2023-03-21T06:51:01.327Z,9.1
2023-03-21T06:52:01.158Z,9.1
2023-03-21T06:53:01.904Z,9
2023-03-21T06:54:01.058Z,9
2023-03-21T06:55:01.077Z,9
2023-03-21T06:56:01.132Z,9
2023-03-21T06:57:01.128Z,9
2023-03-21T06:58:00.916Z,9
2023-03-21T06:59:01.086Z,9
2023-03-21T07:00:01.056Z,9
2023-03-21T07:01:02.243Z,9.1
2023-03-21T07:02:01.161Z,9.1
2023-03-21T07:03:01.233Z,9.1
2023-03-21T07:04:01.077Z,9.1
2023-03-21T07:05:01.063Z,9.1
2023-03-21T07:06:00.557Z,9.1
2023-03-21T07:07:00.361Z,9.1
2023-03-21T07:08:00.007Z,9.1
2023-03-21T07:09:00.055Z,9.2
2023-03-21T07:09:59.760Z,9.2
2023-03-21T07:11:02.309Z,9.2
2023-03-21T07:12:02.500Z,9.2
2023-03-21T07:13:02.127Z,9.3
2023-03-21T07:14:01.178Z,9.3
2023-03-21T07:15:01.808Z,9.3
2023-03-21T07:16:01.191Z,9.3
2023-03-21T07:17:01.228Z,9.3
2023-03-21T07:18:00.892Z,9.3
2023-03-21T07:19:01.513Z,9.2
2023-03-21T07:20:02.767Z,9.2
2023-03-21T07:21:01.774Z,9.3
2023-03-21T07:22:01.091Z,9.2
2023-03-21T07:23:01.089Z,9.3
2023-03-21T07:24:01.136Z,9.3
2023-03-21T07:25:05.660Z,9.3
2023-03-21T07:26:01.095Z,9.3
2023-03-21T07:27:01.137Z,9.3
2023-03-21T07:28:01.173Z,9.3
2023-03-21T07:29:01.182Z,9.3
2023-03-21T07:30:05.292Z,9.3
2023-03-21T07:31:01.755Z,9.3
2023-03-21T07:32:01.492Z,9.3
2023-03-21T07:33:01.361Z,9.3
2023-03-21T07:34:00.974Z,9.3
2023-03-21T07:35:07.157Z,9.3
2023-03-21T07:36:01.279Z,9.2
2023-03-21T07:37:01.435Z,9.2
2023-03-21T07:38:01.666Z,9.1
2023-03-21T07:39:03.025Z,9.1
2023-03-21T07:40:09.605Z,9.1
2023-03-21T07:41:01.123Z,9.1
2023-03-21T07:42:01.133Z,9.1
2023-03-21T07:44:01.137Z,9.1
2023-03-21T07:45:11.005Z,9.1
2023-03-21T07:46:01.557Z,9.1
2023-03-21T07:47:01.278Z,9.1
2023-03-21T07:48:02.159Z,9.1
2023-03-21T07:49:01.163Z,9.1
2023-03-21T07:50:15.221Z,9.1
2023-03-21T07:51:01.162Z,9.1
2023-03-21T07:52:01.889Z,9.1
2023-03-21T07:53:02.725Z,9.1
2023-03-21T07:54:01.245Z,9.1
2023-03-21T07:55:16.849Z,9.1
2023-03-21T07:56:01.112Z,9.1
2023-03-21T07:57:01.106Z,9.1
2023-03-21T07:58:01.213Z,9.1
2023-03-21T07:59:01.122Z,9.1
2023-03-21T08:00:01.110Z,9.2
2023-03-21T08:01:01.132Z,9.1
2023-03-21T08:02:01.249Z,9.2
2023-03-21T08:03:01.263Z,9.2
2023-03-21T08:04:01.167Z,9.2
2023-03-21T08:05:01.163Z,9.2
2023-03-21T08:06:01.549Z,9.3
2023-03-21T08:07:01.589Z,9.2
2023-03-21T08:08:01.357Z,9.3
2023-03-21T08:09:01.064Z,9.3
2023-03-21T08:10:01.123Z,9.3
2023-03-21T08:11:02.247Z,9.3
2023-03-21T08:12:01.153Z,9.3
2023-03-21T08:13:02.655Z,9.3
2023-03-21T08:14:02.688Z,9.4
2023-03-21T08:15:01.714Z,9.4
2023-03-21T08:16:01.549Z,9.4
2023-03-21T08:17:01.061Z,9.5
2023-03-21T08:18:01.393Z,9.5
2023-03-21T08:19:02.252Z,9.5
2023-03-21T08:20:01.218Z,9.5
2023-03-21T08:21:01.479Z,9.5
2023-03-21T08:22:04.886Z,9.6
2023-03-21T08:23:01.711Z,9.6
2023-03-21T08:24:00.818Z,9.6
2023-03-21T08:25:03.273Z,9.6
2023-03-21T08:26:03.029Z,9.5
2023-03-21T08:27:02.153Z,9.5
2023-03-21T08:28:01.104Z,9.5
2023-03-21T08:29:01.173Z,9.5
2023-03-21T08:30:02.088Z,9.6
2023-03-21T08:31:01.363Z,9.5
2023-03-21T08:32:03.591Z,9.6
2023-03-21T08:33:02.085Z,9.6
2023-03-21T08:34:01.114Z,9.6
2023-03-21T08:35:01.448Z,9.6
2023-03-21T08:36:01.258Z,9.6
2023-03-21T08:37:01.168Z,9.6
2023-03-21T08:38:01.168Z,9.6
2023-03-21T08:39:01.186Z,9.6
2023-03-21T08:40:01.220Z,9.7
2023-03-21T08:41:02.246Z,9.7
2023-03-21T08:42:01.343Z,9.7
2023-03-21T08:43:01.183Z,9.8
2023-03-21T08:44:01.078Z,9.8
2023-03-21T08:45:01.117Z,9.8
2023-03-21T08:46:01.544Z,9.8
2023-03-21T08:47:01.195Z,9.8
2023-03-21T08:48:02.431Z,9.8
2023-03-21T08:49:02.400Z,9.8
2023-03-21T08:50:01.912Z,9.8
2023-03-21T08:51:01.763Z,9.8
2023-03-21T08:52:01.798Z,9.8
2023-03-21T08:53:01.689Z,9.8
2023-03-21T08:54:01.593Z,9.8
2023-03-21T08:55:01.467Z,9.8
2023-03-21T08:56:02.237Z,9.8
2023-03-21T08:57:02.642Z,9.8
2023-03-21T08:58:01.584Z,9.8
2023-03-21T08:59:01.682Z,9.8
2023-03-21T09:00:01.589Z,9.8
2023-03-21T09:01:01.754Z,9.8
2023-03-21T09:02:02.793Z,9.8
2023-03-21T09:03:01.605Z,9.8
2023-03-21T09:04:01.258Z,9.8
2023-03-21T09:05:02.436Z,9.8
2023-03-21T09:06:02.980Z,9.8
2023-03-21T09:07:01.166Z,9.8
2023-03-21T09:08:01.395Z,9.8
2023-03-21T09:09:01.106Z,9.8
2023-03-21T09:10:19.800Z,9.9
2023-03-21T09:11:03.103Z,9.9
2023-03-21T09:12:01.259Z,9.9
2023-03-21T09:13:03.017Z,10
2023-03-21T09:14:01.781Z,10
2023-03-21T09:15:01.258Z,10
2023-03-21T09:16:01.659Z,10
2023-03-21T09:17:02.055Z,10
2023-03-21T09:18:03.426Z,10.1
2023-03-21T09:19:01.168Z,10.1
2023-03-21T09:20:01.130Z,10.1
2023-03-21T09:21:01.117Z,10.2
2023-03-21T09:22:01.190Z,10.2
2023-03-21T09:23:01.165Z,10.3
2023-03-21T09:24:01.075Z,10.3
2023-03-21T09:25:01.144Z,10.3
2023-03-21T09:26:01.483Z,10.3
2023-03-21T09:27:04.545Z,10.3
2023-03-21T09:28:01.089Z,10.4
2023-03-21T09:29:01.073Z,10.4
2023-03-21T09:30:01.069Z,10.5
2023-03-21T09:31:04.221Z,10.5
2023-03-21T09:32:01.785Z,10.5
2023-03-21T09:33:01.090Z,10.5
2023-03-21T09:34:01.119Z,10.6
2023-03-21T09:35:01.058Z,10.5
2023-03-21T09:36:06.451Z,10.5
2023-03-21T09:37:01.122Z,10.5
2023-03-21T09:38:01.117Z,10.5
2023-03-21T09:39:01.140Z,10.5
2023-03-21T09:40:01.183Z,10.5
2023-03-21T09:41:08.519Z,10.5
2023-03-21T09:42:01.382Z,10.5
2023-03-21T09:43:02.086Z,10.5
2023-03-21T09:44:02.080Z,10.5
2023-03-21T09:45:00.996Z,10.5
2023-03-21T09:46:11.272Z,10.5
2023-03-21T09:47:00.808Z,10.6
2023-03-21T09:48:00.629Z,10.6
2023-03-21T09:49:00.392Z,10.7
2023-03-21T09:50:13.136Z,10.7
2023-03-21T09:51:15.147Z,10.8
2023-03-21T09:52:02.043Z,10.8
2023-03-21T09:53:02.168Z,10.8
2023-03-21T09:54:02.255Z,10.9
2023-03-21T09:55:01.127Z,10.9
2023-03-21T09:56:01.198Z,10.9
2023-03-21T09:57:01.167Z,11
2023-03-21T09:58:01.149Z,10.9
2023-03-21T09:59:01.167Z,11
2023-03-21T10:00:00.844Z,11
2023-03-21T10:01:00.670Z,10.9
2023-03-21T10:02:00.573Z,11
2023-03-21T10:03:00.253Z,11
2023-03-21T10:03:59.954Z,11
2023-03-21T10:04:59.532Z,11
2023-03-21T10:06:01.193Z,11
2023-03-21T10:07:01.129Z,11
2023-03-21T10:08:00.934Z,11
2023-03-21T10:09:01.144Z,11
2023-03-21T10:10:01.853Z,11.1
2023-03-21T10:11:01.941Z,11.1
2023-03-21T10:12:02.012Z,11.1
2023-03-21T10:13:01.463Z,11.1
2023-03-21T10:14:02.050Z,11.1
2023-03-21T10:15:02.500Z,11.1
2023-03-21T10:16:01.593Z,11.1
2023-03-21T10:17:01.165Z,11.1
2023-03-21T10:18:01.076Z,11.1
2023-03-21T10:19:01.076Z,11
2023-03-21T10:20:01.116Z,11
2023-03-21T10:21:01.517Z,11
2023-03-21T10:22:03.119Z,11
2023-03-21T10:23:01.142Z,11
2023-03-21T10:24:01.301Z,11
2023-03-21T10:25:04.267Z,11
2023-03-21T10:26:01.506Z,11
2023-03-21T10:27:01.157Z,11.1
2023-03-21T10:28:01.128Z,11.1
2023-03-21T10:29:01.251Z,11.1
2023-03-21T10:30:01.149Z,11.1
2023-03-21T10:31:01.181Z,11.1
2023-03-21T10:32:01.788Z,11.1
2023-03-21T10:33:01.779Z,11.2
2023-03-21T10:34:01.743Z,11.2
2023-03-21T10:35:01.534Z,11.2
2023-03-21T10:36:01.257Z,11.3
2023-03-21T10:37:01.115Z,11.3
2023-03-21T10:38:01.051Z,11.3
2023-03-21T10:39:01.105Z,11.3
2023-03-21T10:40:01.118Z,11.3
2023-03-21T10:41:01.147Z,11.3
2023-03-21T10:42:00.673Z,11.3
2023-03-21T10:43:00.498Z,11.3
2023-03-21T10:44:00.330Z,11.3
2023-03-21T10:44:59.908Z,11.3
2023-03-21T10:45:59.586Z,11.3
2023-03-21T10:47:01.436Z,11.3
2023-03-21T10:48:01.405Z,11.3
2023-03-21T10:49:01.162Z,11.3
2023-03-21T10:50:10.247Z,11.3
2023-03-21T10:51:01.891Z,11.3
2023-03-21T10:52:01.105Z,11.3
2023-03-21T10:53:01.208Z,11.3
2023-03-21T10:54:02.119Z,11.4
2023-03-21T10:55:01.118Z,11.4
2023-03-21T10:56:01.296Z,11.5
2023-03-21T10:57:01.934Z,11.5
2023-03-21T10:58:01.290Z,11.5
2023-03-21T10:59:01.061Z,11.5
2023-03-21T11:00:01.121Z,11.4
2023-03-21T11:01:01.091Z,11.4
2023-03-21T11:02:01.663Z,11.4
2023-03-21T11:03:01.350Z,11.4
2023-03-21T11:04:02.076Z,11.5
2023-03-21T11:05:01.448Z,11.5
2023-03-21T11:06:03.699Z,11.5
2023-03-21T11:07:01.473Z,11.5
2023-03-21T11:08:01.229Z,11.5
2023-03-21T11:09:01.886Z,11.5
2023-03-21T11:10:01.095Z,11.5
2023-03-21T11:11:01.080Z,11.5
2023-03-21T11:12:01.061Z,11.5
2023-03-21T11:13:01.120Z,11.5
2023-03-21T11:14:01.440Z,11.5
2023-03-21T11:15:01.423Z,11.5
2023-03-21T11:16:01.437Z,11.5
2023-03-21T11:17:01.215Z,11.5
2023-03-21T11:18:01.148Z,11.5
2023-03-21T11:19:01.160Z,11.5
2023-03-21T11:20:01.202Z,11.5
2023-03-21T11:21:01.072Z,11.5
2023-03-21T11:22:01.155Z,11.5
2023-03-21T11:23:00.905Z,11.5
2023-03-21T11:24:01.237Z,11.5
2023-03-21T11:25:01.074Z,11.5
2023-03-21T11:26:02.312Z,11.5
2023-03-21T11:27:02.939Z,11.5
2023-03-21T11:28:02.266Z,11.5
2023-03-21T11:29:01.121Z,11.5
2023-03-21T11:30:01.134Z,11.5
2023-03-21T11:31:02.606Z,11.5
2023-03-21T11:32:05.333Z,11.5
2023-03-21T11:33:01.143Z,11.5
2023-03-21T11:34:01.149Z,11.6
2023-03-21T11:35:01.364Z,11.6
2023-03-21T11:36:01.597Z,11.6
2023-03-21T11:37:06.163Z,11.6
2023-03-21T11:38:01.612Z,11.6
2023-03-21T11:39:01.140Z,11.6
2023-03-21T11:40:01.135Z,11.6
2023-03-21T11:41:01.105Z,11.7
2023-03-21T11:42:09.820Z,11.7
2023-03-21T11:43:00.824Z,11.8
2023-03-21T11:44:00.497Z,11.8
2023-03-21T11:45:00.093Z,11.9
2023-03-21T11:45:59.971Z,12
2023-03-21T11:47:11.019Z,12
2023-03-21T11:48:01.619Z,12
2023-03-21T11:49:01.138Z,12
2023-03-21T11:50:04.898Z,12
2023-03-21T11:51:01.152Z,12
2023-03-21T11:52:15.976Z,12
2023-03-21T11:53:01.449Z,12
2023-03-21T11:54:01.064Z,12
2023-03-21T11:55:01.077Z,12
2023-03-21T11:56:01.120Z,11.9
2023-03-21T11:57:01.090Z,11.9
2023-03-21T11:58:12.060Z,11.9
2023-03-21T11:59:01.243Z,11.9
2023-03-21T12:00:01.416Z,11.9
2023-03-21T12:01:01.256Z,12
2023-03-21T12:02:01.503Z,12
2023-03-21T12:03:01.071Z,12
2023-03-21T12:04:00.778Z,12
2023-03-21T12:05:00.565Z,12
2023-03-21T12:06:00.333Z,12
2023-03-21T12:07:00.125Z,12
2023-03-21T12:07:59.825Z,12
2023-03-21T12:09:01.828Z,12
2023-03-21T12:10:01.306Z,12
2023-03-21T12:11:01.301Z,12
2023-03-21T12:12:01.078Z,12
2023-03-21T12:13:01.096Z,12
2023-03-21T12:14:01.114Z,12
2023-03-21T12:15:01.114Z,12
2023-03-21T12:16:01.145Z,12
2023-03-21T12:17:01.119Z,12
2023-03-21T12:18:01.518Z,12
2023-03-21T12:19:03.876Z,12
2023-03-21T12:20:01.133Z,12
2023-03-21T12:21:01.137Z,12
2023-03-21T12:22:01.164Z,12.1
2023-03-21T12:23:00.890Z,12.1
2023-03-21T12:24:01.176Z,12.1
2023-03-21T12:25:01.060Z,12.1
2023-03-21T12:26:01.069Z,12.1
2023-03-21T12:27:01.187Z,12.1
2023-03-21T12:28:01.485Z,12.1
2023-03-21T12:29:01.476Z,12.2
2023-03-21T12:30:01.124Z,12.2
2023-03-21T12:31:01.122Z,12.3
2023-03-21T12:32:01.051Z,12.3
2023-03-21T12:33:01.318Z,12.3
2023-03-21T12:34:02.049Z,12.3
2023-03-21T12:35:02.558Z,12.3
2023-03-21T12:36:01.288Z,12.3
2023-03-21T12:37:01.136Z,12.3
2023-03-21T12:38:01.156Z,12.3
2023-03-21T12:39:01.059Z,12.2
2023-03-21T12:40:01.065Z,12.2
2023-03-21T12:41:01.729Z,12.3
2023-03-21T12:42:01.208Z,12.3
2023-03-21T12:43:00.788Z,12.2
2023-03-21T12:44:00.452Z,12.2
2023-03-21T12:45:00.791Z,12.2
2023-03-21T12:46:01.105Z,12.2
2023-03-21T12:47:01.156Z,12.3
2023-03-21T12:48:01.222Z,12.2
2023-03-21T12:49:02.644Z,12.3
2023-03-21T12:50:01.098Z,12.3
2023-03-21T12:51:01.137Z,12.3
2023-03-21T12:52:01.143Z,12.3
2023-03-21T12:53:01.147Z,12.3
2023-03-21T12:54:01.143Z,12.3
2023-03-21T12:55:01.289Z,12.3
2023-03-21T12:56:01.557Z,12.3
2023-03-21T12:57:01.287Z,12.3
2023-03-21T12:58:01.074Z,12.3
2023-03-21T12:59:01.071Z,12.3
2023-03-21T13:00:01.092Z,12.3
2023-03-21T13:01:01.183Z,12.3
2023-03-21T13:02:01.128Z,12.3
2023-03-21T13:03:01.577Z,12.3
2023-03-21T13:04:01.424Z,12.2
2023-03-21T13:05:01.786Z,12.2
2023-03-21T13:06:01.418Z,12.3
2023-03-21T13:07:01.434Z,12.2
2023-03-21T13:08:02.268Z,12.2
2023-03-21T13:09:01.070Z,12.2
2023-03-21T13:10:01.130Z,12.2
2023-03-21T13:11:01.374Z,12.2
2023-03-21T13:12:01.151Z,12.2
2023-03-21T13:13:04.917Z,12.2
2023-03-21T13:14:02.186Z,12.2
2023-03-21T13:15:01.201Z,12.2
2023-03-21T13:16:01.128Z,12.2
2023-03-21T13:17:01.519Z,12.3
2023-03-21T13:18:07.788Z,12.3
2023-03-21T13:19:01.130Z,12.3
2023-03-21T13:20:01.107Z,12.3
2023-03-21T13:21:01.820Z,12.3
2023-03-21T13:22:01.510Z,12.3
2023-03-21T13:23:11.134Z,12.3
2023-03-21T13:24:01.143Z,12.3
2023-03-21T13:25:01.942Z,12.3
2023-03-21T13:26:01.206Z,12.3
2023-03-21T13:27:01.207Z,12.3
2023-03-21T13:28:13.927Z,12.3
2023-03-21T13:29:01.073Z,12.3
2023-03-21T13:30:01.158Z,12.3
2023-03-21T13:31:01.076Z,12.4
2023-03-21T13:32:01.854Z,12.4
2023-03-21T13:33:16.520Z,12.5
2023-03-21T13:34:01.211Z,12.5
2023-03-21T13:35:01.546Z,12.5
2023-03-21T13:36:00.972Z,12.5
2023-03-21T13:37:01.137Z,12.5
2023-03-21T13:38:01.134Z,12.5
2023-03-21T13:39:01.116Z,12.6
2023-03-21T13:40:01.137Z,12.6
2023-03-21T13:41:01.140Z,12.6
2023-03-21T13:42:01.155Z,12.6
2023-03-21T13:43:00.839Z,12.6
2023-03-21T13:44:00.439Z,12.6
2023-03-21T13:45:00.022Z,12.6